createdAt,value
2019-04-07T00:00:07.462Z,94.0856
2019-04-07T00:00:18.292Z,93.9803
2019-04-07T00:00:29.296Z,93.8552
2019-04-07T00:00:37.396Z,93.9162
2019-04-07T00:00:52.991Z,93.9391
2019-04-07T00:01:02.395Z,94.1085
2019-04-07T00:01:10.396Z,93.9879
2019-04-07T00:01:18.520Z,93.9330
2019-04-07T00:01:26.408Z,93.8552
2019-04-07T00:01:34.451Z,94.0063
2019-04-07T00:01:42.394Z,94.0169
2019-04-07T00:01:50.452Z,93.9696
2019-04-07T00:01:58.424Z,94.0383
2019-04-07T00:02:14.235Z,94.0795
2019-04-07T00:02:22.456Z,93.8796
2019-04-07T00:02:30.459Z,93.9742
2019-04-07T00:02:38.536Z,94.1390
2019-04-07T00:02:46.453Z,94.2504
2019-04-07T00:02:54.588Z,94.2534
2019-04-07T00:03:01.401Z,94.2641
2019-04-07T00:03:09.426Z,94.1207
2019-04-07T00:03:17.446Z,94.1573
2019-04-07T00:03:24.418Z,94.1344
2019-04-07T00:03:32.425Z,93.9254
2019-04-07T00:03:40.381Z,93.7972
2019-04-07T00:03:48.400Z,93.7514
2019-04-07T00:03:56.403Z,93.7560
2019-04-07T00:04:04.415Z,93.9605
2019-04-07T00:04:12.406Z,93.9696
2019-04-07T00:04:19.392Z,94.0612
2019-04-07T00:04:27.392Z,93.8705
2019-04-07T00:04:35.406Z,93.9117
2019-04-07T00:04:43.396Z,93.9117
2019-04-07T00:04:51.431Z,93.9437
2019-04-07T00:05:10.201Z,94.0108
2019-04-07T00:05:14.726Z,94.0658
2019-04-07T00:05:23.012Z,94.1573
2019-04-07T00:05:31.380Z,94.0993
2019-04-07T00:05:39.473Z,93.9529
2019-04-07T00:05:47.389Z,93.8476
2019-04-07T00:05:55.409Z,93.6400
2019-04-07T00:06:24.398Z,93.3577
2019-04-07T00:06:32.383Z,94.0581
2019-04-07T00:06:40.392Z,93.8872
2019-04-07T00:06:48.420Z,93.8277
2019-04-07T00:06:56.406Z,93.7972
2019-04-07T00:07:04.419Z,93.6507
2019-04-07T00:07:11.482Z,93.5271
2019-04-07T00:07:20.411Z,93.4264
2019-04-07T00:07:28.501Z,93.2097
2019-04-07T00:07:36.422Z,92.9870
2019-04-07T00:07:44.802Z,93.1609
2019-04-07T00:07:53.029Z,93.1426
2019-04-07T00:08:01.820Z,93.1640
2019-04-07T00:08:10.140Z,93.0953
2019-04-07T00:08:33.303Z,92.9412
2019-04-07T00:08:43.478Z,92.6329
2019-04-07T00:08:52.286Z,92.5643
2019-04-07T00:09:03.887Z,92.6940
2019-04-07T00:09:13.339Z,93.0175
2019-04-07T00:09:22.189Z,93.0098
2019-04-07T00:09:33.154Z,93.4997
2019-04-07T00:09:41.408Z,94.2260
2019-04-07T00:09:50.341Z,94.7082
2019-04-07T00:09:59.253Z,95.3201
2019-04-07T00:10:08.350Z,95.4452
2019-04-07T00:10:16.398Z,95.4437
2019-04-07T00:10:24.948Z,95.3948
2019-04-07T00:10:32.403Z,95.1095
2019-04-07T00:10:41.366Z,94.9920
2019-04-07T00:10:50.584Z,95.6222
2019-04-07T00:10:59.253Z,96.0311
2019-04-07T00:11:07.413Z,95.9854
2019-04-07T00:11:15.403Z,95.5032
2019-04-07T00:11:23.419Z,94.9371
2019-04-07T00:11:31.405Z,94.8363
2019-04-07T00:11:39.678Z,95.2117
2019-04-07T00:11:46.385Z,95.3033
2019-04-07T00:11:57.007Z,95.1659
2019-04-07T00:12:12.577Z,95.3170
2019-04-07T00:12:20.456Z,95.6863
2019-04-07T00:12:29.249Z,95.7687
2019-04-07T00:12:45.732Z,95.6191
2019-04-07T00:12:54.009Z,95.4940
2019-04-07T00:13:02.876Z,95.4162
2019-04-07T00:13:10.700Z,95.4482
2019-04-07T00:13:18.446Z,95.5444
2019-04-07T00:13:27.122Z,95.6146
2019-04-07T00:13:35.420Z,95.6191
2019-04-07T00:13:43.410Z,95.5673
2019-04-07T00:13:51.792Z,95.6359
2019-04-07T00:14:02.412Z,95.6863
2019-04-07T00:14:13.862Z,95.6558
2019-04-07T00:14:21.464Z,95.5215
2019-04-07T00:14:30.291Z,95.5322
2019-04-07T00:14:39.983Z,95.4818
2019-04-07T00:14:51.428Z,95.5901
2019-04-07T00:15:00.294Z,95.6817
2019-04-07T00:15:08.806Z,95.6558
2019-04-07T00:15:16.841Z,95.6649
2019-04-07T00:15:24.420Z,95.5413
2019-04-07T00:15:32.395Z,95.4620
2019-04-07T00:15:40.407Z,95.4314
2019-04-07T00:15:48.841Z,95.5550
2019-04-07T00:15:56.422Z,95.5810
2019-04-07T00:16:04.600Z,95.6359
2019-04-07T00:16:12.399Z,95.8144
2019-04-07T00:16:20.431Z,95.8968
2019-04-07T00:16:28.424Z,95.8099
2019-04-07T00:16:37.345Z,95.8755
2019-04-07T00:16:45.550Z,95.9655
2019-04-07T00:16:53.757Z,95.5047
2019-04-07T00:17:01.790Z,95.5810
2019-04-07T00:17:10.530Z,95.8236
2019-04-07T00:17:18.433Z,95.7931
2019-04-07T00:17:29.797Z,95.7839
2019-04-07T00:17:37.540Z,95.4665
2019-04-07T00:17:45.578Z,95.4345
2019-04-07T00:17:52.407Z,95.4635
2019-04-07T00:18:00.550Z,95.4345
2019-04-07T00:18:08.413Z,95.6222
2019-04-07T00:18:16.866Z,95.2377
2019-04-07T00:18:24.429Z,95.0546
2019-04-07T00:18:32.523Z,95.0591
2019-04-07T00:18:40.975Z,95.1659
2019-04-07T00:18:49.556Z,95.1339
2019-04-07T00:18:57.831Z,95.0469
2019-04-07T00:19:06.639Z,95.0835
2019-04-07T00:19:15.556Z,95.1705
2019-04-07T00:19:23.401Z,95.2239
2019-04-07T00:19:31.609Z,95.2483
2019-04-07T00:19:40.427Z,95.0332
2019-04-07T00:19:48.789Z,95.0652
2019-04-07T00:20:11.290Z,95.0225
2019-04-07T00:20:19.871Z,94.7112
2019-04-07T00:20:29.632Z,94.5388
2019-04-07T00:20:38.684Z,94.2901
2019-04-07T00:20:46.409Z,94.4045
2019-04-07T00:20:54.396Z,94.4274
2019-04-07T00:21:03.920Z,94.4778
2019-04-07T00:21:11.391Z,94.4869
2019-04-07T00:21:20.013Z,94.6166
2019-04-07T00:21:29.464Z,94.7845
2019-04-07T00:21:37.398Z,94.8119
2019-04-07T00:21:45.661Z,94.8760
2019-04-07T00:21:53.930Z,94.7448
2019-04-07T00:22:02.420Z,94.4411
2019-04-07T00:22:10.410Z,94.3771
2019-04-07T00:22:19.882Z,94.4961
2019-04-07T00:22:26.395Z,94.5342
2019-04-07T00:22:35.347Z,94.5708
2019-04-07T00:22:43.401Z,94.5144
2019-04-07T00:22:51.403Z,94.6120
2019-04-07T00:22:59.413Z,94.5891
2019-04-07T00:23:07.405Z,94.5983
2019-04-07T00:23:15.431Z,94.3862
2019-04-07T00:23:23.421Z,94.2443
2019-04-07T00:23:31.979Z,93.9239
2019-04-07T00:23:40.421Z,93.8705
2019-04-07T00:23:56.159Z,93.8064
2019-04-07T00:24:05.689Z,94.0063
2019-04-07T00:24:13.634Z,93.9437
2019-04-07T00:24:21.892Z,93.9467
2019-04-07T00:24:29.611Z,94.1726
2019-04-07T00:24:37.388Z,94.2809
2019-04-07T00:24:45.413Z,94.2779
2019-04-07T00:24:53.398Z,94.2901
2019-04-07T00:25:02.483Z,94.3542
2019-04-07T00:25:10.585Z,94.4472
2019-04-07T00:25:18.395Z,94.5251
2019-04-07T00:25:26.450Z,94.5663
2019-04-07T00:25:34.384Z,94.6349
2019-04-07T00:25:42.976Z,94.4244
2019-04-07T00:25:51.395Z,94.3221
2019-04-07T00:26:00.154Z,94.3236
2019-04-07T00:26:08.434Z,94.3084
2019-04-07T00:26:16.758Z,94.3236
2019-04-07T00:26:24.910Z,94.3511
2019-04-07T00:26:32.393Z,94.3084
2019-04-07T00:26:39.450Z,94.3694
2019-04-07T00:26:47.503Z,94.4106
2019-04-07T00:26:55.392Z,94.1314
2019-04-07T00:27:03.548Z,93.9055
2019-04-07T00:27:12.400Z,93.8384
2019-04-07T00:27:21.356Z,93.7697
2019-04-07T00:27:32.412Z,93.7377
2019-04-07T00:27:40.497Z,93.7926
2019-04-07T00:28:10.295Z,93.9803
2019-04-07T00:28:19.597Z,94.1115
2019-04-07T00:28:27.540Z,94.1894
2019-04-07T00:28:35.397Z,94.1085
2019-04-07T00:28:43.743Z,93.9483
2019-04-07T00:28:51.949Z,94.0429
2019-04-07T00:29:01.561Z,94.1070
2019-04-07T00:29:10.944Z,93.9437
2019-04-07T00:29:19.940Z,93.8232
2019-04-07T00:29:27.713Z,93.9071
2019-04-07T00:29:37.852Z,94.0810
2019-04-07T00:29:45.416Z,94.0993
2019-04-07T00:29:56.462Z,94.0444
2019-04-07T00:30:19.785Z,93.9529
2019-04-07T00:30:27.403Z,94.0383
2019-04-07T00:30:35.396Z,93.9757
2019-04-07T00:30:43.414Z,94.0383
2019-04-07T00:30:52.292Z,94.2122
2019-04-07T00:31:01.937Z,94.2733
2019-04-07T00:31:17.303Z,94.3191
2019-04-07T00:31:25.402Z,93.9391
2019-04-07T00:31:33.409Z,93.7743
2019-04-07T00:31:41.556Z,93.7865
2019-04-07T00:31:50.009Z,93.4295
2019-04-07T00:31:59.299Z,93.2433
2019-04-07T00:32:07.405Z,93.1655
2019-04-07T00:32:15.464Z,93.4524
2019-04-07T00:32:23.423Z,93.3745
2019-04-07T00:32:31.422Z,93.5760
2019-04-07T00:32:39.403Z,93.6217
2019-04-07T00:32:47.676Z,93.6828
2019-04-07T00:32:56.394Z,93.7148
2019-04-07T00:33:04.384Z,93.5409
2019-04-07T00:33:12.402Z,93.6141
2019-04-07T00:33:21.033Z,93.4035
2019-04-07T00:33:29.404Z,93.2555
2019-04-07T00:33:37.411Z,93.3303
2019-04-07T00:33:46.043Z,93.3806
2019-04-07T00:33:55.432Z,93.4340
2019-04-07T00:34:04.309Z,93.3532
2019-04-07T00:34:12.462Z,93.3898
2019-04-07T00:34:20.560Z,93.3150
2019-04-07T00:34:28.904Z,93.1365
2019-04-07T00:34:36.841Z,93.2525
2019-04-07T00:34:45.008Z,93.4844
2019-04-07T00:34:54.017Z,93.3242
2019-04-07T00:35:03.042Z,92.9534
2019-04-07T00:35:21.938Z,92.9824
2019-04-07T00:35:29.360Z,93.0495
2019-04-07T00:35:37.652Z,93.2052
2019-04-07T00:35:45.924Z,93.0327
2019-04-07T00:35:52.401Z,92.9717
2019-04-07T00:36:00.880Z,93.0648
2019-04-07T00:36:08.437Z,93.0327
2019-04-07T00:36:20.543Z,93.0816
2019-04-07T00:36:28.383Z,93.2342
2019-04-07T00:36:36.410Z,93.2921
2019-04-07T00:36:44.780Z,93.2387
2019-04-07T00:36:52.403Z,93.2525
2019-04-07T00:37:00.414Z,93.1746
2019-04-07T00:37:08.411Z,93.2052
2019-04-07T00:37:17.097Z,93.0968
2019-04-07T00:37:25.454Z,93.0419
2019-04-07T00:37:33.677Z,93.0495
2019-04-07T00:37:41.773Z,93.2647
2019-04-07T00:37:49.383Z,93.2876
2019-04-07T00:37:57.434Z,93.3577
2019-04-07T00:38:05.410Z,93.1975
2019-04-07T00:38:13.899Z,93.1731
2019-04-07T00:38:21.423Z,93.0327
2019-04-07T00:38:28.527Z,92.9351
2019-04-07T00:38:36.385Z,93.0373
2019-04-07T00:38:45.006Z,93.1090
2019-04-07T00:38:53.826Z,93.0877
2019-04-07T00:39:08.295Z,93.2479
2019-04-07T00:39:16.860Z,93.3257
2019-04-07T00:39:24.434Z,93.4630
2019-04-07T00:39:33.558Z,93.3761
2019-04-07T00:39:41.433Z,93.3242
2019-04-07T00:39:49.957Z,93.3669
2019-04-07T00:39:57.770Z,93.2067
2019-04-07T00:40:05.447Z,93.2555
2019-04-07T00:40:13.387Z,93.2876
2019-04-07T00:40:22.327Z,93.2601
2019-04-07T00:40:30.609Z,93.2189
2019-04-07T00:40:38.411Z,93.2570
2019-04-07T00:40:46.533Z,93.2433
2019-04-07T00:40:54.413Z,93.3303
2019-04-07T00:41:02.408Z,93.2509
2019-04-07T00:41:09.510Z,93.2204
2019-04-07T00:41:17.419Z,93.1777
2019-04-07T00:41:25.405Z,93.1685
2019-04-07T00:41:33.403Z,93.2616
2019-04-07T00:41:44.118Z,93.3349
2019-04-07T00:41:51.820Z,93.1273
2019-04-07T00:41:59.404Z,93.0190
2019-04-07T00:42:07.410Z,92.9625
2019-04-07T00:42:15.405Z,92.8222
2019-04-07T00:42:22.615Z,92.8862
2019-04-07T00:42:30.411Z,93.0007
2019-04-07T00:42:39.283Z,93.0236
2019-04-07T00:42:55.510Z,93.1609
2019-04-07T00:43:03.459Z,93.3883
2019-04-07T00:43:32.410Z,93.4585
2019-04-07T00:43:40.609Z,93.4768
2019-04-07T00:43:47.443Z,93.4585
2019-04-07T00:43:56.113Z,93.4401
2019-04-07T00:44:05.024Z,93.4905
2019-04-07T00:44:15.609Z,93.5760
2019-04-07T00:44:23.550Z,93.4905
2019-04-07T00:44:32.801Z,93.5042
2019-04-07T00:44:41.948Z,93.4844
2019-04-07T00:44:49.684Z,93.4478
2019-04-07T00:44:58.695Z,93.3562
2019-04-07T00:45:06.416Z,93.3379
2019-04-07T00:45:14.392Z,93.4386
2019-04-07T00:45:22.410Z,93.4936
2019-04-07T00:45:30.659Z,93.4981
2019-04-07T00:45:38.491Z,93.4340
2019-04-07T00:45:47.287Z,93.3471
2019-04-07T00:45:55.893Z,93.4020
2019-04-07T00:46:03.533Z,93.5119
2019-04-07T00:46:11.522Z,93.4524
2019-04-07T00:46:20.011Z,93.4081
2019-04-07T00:46:29.303Z,93.4432
2019-04-07T00:46:37.406Z,93.5851
2019-04-07T00:46:46.295Z,93.4798
2019-04-07T00:46:55.300Z,93.5485
2019-04-07T00:47:03.421Z,93.5164
2019-04-07T00:47:11.987Z,93.6126
2019-04-07T00:47:21.886Z,93.7224
2019-04-07T00:47:29.490Z,93.7789
2019-04-07T00:47:38.859Z,93.7789
2019-04-07T00:47:46.602Z,93.8277
2019-04-07T00:47:54.390Z,93.8476
2019-04-07T00:48:02.386Z,93.8689
2019-04-07T00:48:10.651Z,93.8552
2019-04-07T00:48:25.324Z,93.7865
2019-04-07T00:48:33.418Z,93.7377
2019-04-07T00:48:42.334Z,93.8293
2019-04-07T00:48:51.293Z,94.0200
2019-04-07T00:49:00.315Z,94.0902
2019-04-07T00:49:13.144Z,94.0658
2019-04-07T00:49:22.071Z,93.9055
2019-04-07T00:49:30.082Z,93.9284
2019-04-07T00:49:38.525Z,93.9117
2019-04-07T00:49:46.591Z,93.9437
2019-04-07T00:49:54.411Z,93.9620
2019-04-07T00:50:02.921Z,94.0337
2019-04-07T00:50:11.946Z,93.9055
2019-04-07T00:50:19.528Z,93.8567
2019-04-07T00:50:27.414Z,93.9712
2019-04-07T00:50:36.295Z,94.1497
2019-04-07T00:50:46.016Z,94.0154
2019-04-07T00:50:55.801Z,93.8384
2019-04-07T00:51:04.492Z,93.6355
2019-04-07T00:51:34.408Z,93.7179
2019-04-07T00:51:43.235Z,93.3059
2019-04-07T00:51:51.410Z,93.4386
2019-04-07T00:51:58.482Z,93.5943
2019-04-07T00:52:06.418Z,93.2097
2019-04-07T00:52:14.511Z,93.0129
2019-04-07T00:52:22.402Z,92.7489
2019-04-07T00:52:30.398Z,92.5521
2019-04-07T00:52:39.072Z,92.3873
2019-04-07T00:52:47.994Z,92.4788
2019-04-07T00:52:56.406Z,92.6558
2019-04-07T00:53:04.501Z,92.5978
2019-04-07T00:53:12.414Z,92.5551
2019-04-07T00:53:23.792Z,92.9412
2019-04-07T00:53:31.576Z,93.5088
2019-04-07T00:53:39.421Z,93.7545
2019-04-07T00:53:46.444Z,93.9666
2019-04-07T00:53:54.569Z,93.8186
2019-04-07T00:54:03.483Z,93.6172
2019-04-07T00:54:12.627Z,93.2387
2019-04-07T00:54:20.541Z,92.6253
2019-04-07T00:54:29.310Z,93.0144
2019-04-07T00:54:38.289Z,93.6400
2019-04-07T00:54:46.973Z,94.0795
2019-04-07T00:54:55.571Z,93.9376
2019-04-07T00:55:04.430Z,94.0169
2019-04-07T00:55:12.923Z,93.6690
2019-04-07T00:55:22.080Z,93.3532
2019-04-07T00:55:31.327Z,93.1365
2019-04-07T00:55:39.691Z,93.5668
2019-04-07T00:55:48.488Z,94.7585
2019-04-07T00:55:56.328Z,95.1888
2019-04-07T00:56:05.051Z,95.0546
2019-04-07T00:56:13.412Z,94.8592
2019-04-07T00:56:22.301Z,94.7112
2019-04-07T00:56:30.407Z,95.2392
2019-04-07T00:56:39.294Z,95.3887
2019-04-07T00:56:47.401Z,95.1461
2019-04-07T00:56:55.660Z,94.9187
2019-04-07T00:57:03.410Z,94.9050
2019-04-07T00:57:11.995Z,94.5525
2019-04-07T00:57:21.896Z,94.7127
2019-04-07T00:57:30.130Z,94.7677
2019-04-07T00:57:38.444Z,94.9172
2019-04-07T00:57:47.287Z,95.5962
2019-04-07T00:57:56.117Z,95.3979
2019-04-07T00:58:04.422Z,95.2850
2019-04-07T00:58:12.579Z,95.3201
2019-04-07T00:58:20.430Z,95.3704
2019-04-07T00:58:29.032Z,95.9792
2019-04-07T00:58:38.236Z,96.5789
2019-04-07T00:58:46.643Z,95.1507
2019-04-07T00:58:55.417Z,94.2351
2019-04-07T00:59:03.168Z,94.8531
2019-04-07T00:59:11.418Z,95.5871
2019-04-07T00:59:19.665Z,94.9172
2019-04-07T00:59:27.406Z,94.7768
2019-04-07T00:59:35.406Z,94.7845
2019-04-07T00:59:44.055Z,95.0866
2019-04-07T00:59:52.407Z,95.0515
2019-04-07T01:00:00.499Z,95.1110
2019-04-07T01:00:08.419Z,95.1965
2019-04-07T01:00:17.439Z,95.5001
2019-04-07T01:00:28.105Z,95.3719
2019-04-07T01:00:37.370Z,95.3674
2019-04-07T01:00:45.409Z,95.4849
2019-04-07T01:00:53.721Z,95.5169
2019-04-07T01:01:01.459Z,95.5489
2019-04-07T01:01:16.431Z,95.7092
2019-04-07T01:01:25.460Z,96.2264
2019-04-07T01:01:34.982Z,96.4340
2019-04-07T01:01:43.424Z,96.8444
2019-04-07T01:01:50.469Z,96.9909
2019-04-07T01:01:59.293Z,96.7132
2019-04-07T01:02:07.844Z,96.4187
2019-04-07T01:02:16.887Z,96.0449
2019-04-07T01:02:24.519Z,96.3241
2019-04-07T01:02:32.453Z,95.8846
2019-04-07T01:02:40.813Z,95.1431
2019-04-07T01:02:49.465Z,94.9828
2019-04-07T01:02:57.432Z,95.0546
2019-04-07T01:03:05.431Z,95.4437
2019-04-07T01:03:13.673Z,95.8465
2019-04-07T01:03:24.912Z,94.7478
2019-04-07T01:03:33.716Z,94.3267
2019-04-07T01:03:40.426Z,94.2184
2019-04-07T01:03:48.398Z,94.4961
2019-04-07T01:03:56.853Z,94.8440
2019-04-07T01:04:12.242Z,95.0042
2019-04-07T01:04:21.539Z,94.9325
2019-04-07T01:04:29.403Z,95.3491
2019-04-07T01:04:41.897Z,95.6039
2019-04-07T01:04:50.646Z,96.2905
2019-04-07T01:04:58.431Z,95.6176
2019-04-07T01:05:06.407Z,95.8740
2019-04-07T01:05:14.779Z,96.0586
2019-04-07T01:05:34.792Z,96.5759
2019-04-07T01:05:40.717Z,97.0687
2019-04-07T01:05:49.552Z,96.2737
2019-04-07T01:05:58.741Z,95.6451
2019-04-07T01:06:13.292Z,95.4314
2019-04-07T01:06:21.908Z,95.2941
2019-04-07T01:06:30.979Z,95.5322
2019-04-07T01:06:38.394Z,95.6924
2019-04-07T01:06:46.426Z,95.9808
2019-04-07T01:06:55.061Z,95.9014
2019-04-07T01:07:03.660Z,95.8938
2019-04-07T01:07:11.446Z,96.2325
2019-04-07T01:07:19.116Z,96.7086
2019-04-07T01:07:27.937Z,97.2839
2019-04-07T01:07:36.421Z,96.7483
2019-04-07T01:07:44.414Z,96.2768
2019-04-07T01:07:52.585Z,95.0683
2019-04-07T01:08:00.584Z,94.6334
2019-04-07T01:08:08.418Z,94.8714
2019-04-07T01:08:17.105Z,95.4223
2019-04-07T01:08:25.961Z,96.3409
2019-04-07T01:08:33.530Z,96.9223
2019-04-07T01:08:41.562Z,96.8124
2019-04-07T01:08:49.442Z,96.3272
2019-04-07T01:08:58.312Z,95.6512
2019-04-07T01:09:07.000Z,95.7565
2019-04-07T01:09:16.549Z,96.3424
2019-04-07T01:09:25.411Z,96.4645
2019-04-07T01:09:33.413Z,96.3973
2019-04-07T01:09:43.158Z,95.3262
2019-04-07T01:09:51.410Z,94.5846
2019-04-07T01:09:59.593Z,94.5006
2019-04-07T01:10:14.308Z,94.5113
2019-04-07T01:10:24.156Z,95.1141
2019-04-07T01:10:32.736Z,95.4528
2019-04-07T01:10:40.530Z,95.8556
2019-04-07T01:10:48.044Z,95.8480
2019-04-07T01:10:56.983Z,95.6191
2019-04-07T01:11:05.656Z,95.9396
2019-04-07T01:11:14.418Z,96.3592
2019-04-07T01:11:23.068Z,96.5347
2019-04-07T01:11:32.311Z,96.1852
2019-04-07T01:11:40.453Z,95.7504
2019-04-07T01:11:48.584Z,95.4986
2019-04-07T01:11:56.287Z,95.7320
2019-04-07T01:12:04.949Z,95.8556
2019-04-07T01:12:13.941Z,95.8068
2019-04-07T01:12:21.431Z,95.7778
2019-04-07T01:12:29.434Z,95.9991
2019-04-07T01:12:38.400Z,95.9945
2019-04-07T01:12:46.459Z,96.0708
2019-04-07T01:12:54.445Z,96.3745
2019-04-07T01:13:02.413Z,96.0952
2019-04-07T01:13:10.742Z,95.9808
2019-04-07T01:13:19.851Z,95.6908
2019-04-07T01:13:27.426Z,95.3384
2019-04-07T01:13:35.426Z,95.6832
2019-04-07T01:13:43.421Z,95.9747
2019-04-07T01:13:51.681Z,95.9258
2019-04-07T01:13:59.434Z,95.8480
2019-04-07T01:14:08.320Z,95.9213
2019-04-07T01:14:16.978Z,95.9213
2019-04-07T01:14:25.611Z,95.8846
2019-04-07T01:14:34.408Z,95.8205
2019-04-07T01:14:42.399Z,95.7961
2019-04-07T01:14:55.413Z,96.0388
2019-04-07T01:15:04.338Z,96.4920
2019-04-07T01:15:12.522Z,96.4279
2019-04-07T01:15:20.408Z,96.5072
2019-04-07T01:15:28.431Z,96.5331
2019-04-07T01:15:37.316Z,96.3745
2019-04-07T01:15:45.986Z,96.1852
2019-04-07T01:15:54.890Z,96.4736
2019-04-07T01:16:02.410Z,96.4050
2019-04-07T01:16:10.821Z,96.3333
2019-04-07T01:16:34.272Z,96.4782
2019-04-07T01:16:41.802Z,96.3958
2019-04-07T01:16:49.401Z,96.5240
2019-04-07T01:16:57.420Z,96.7956
2019-04-07T01:17:06.122Z,96.3058
2019-04-07T01:17:14.932Z,96.1486
2019-04-07T01:17:24.736Z,96.1303
2019-04-07T01:17:32.433Z,96.2631
2019-04-07T01:17:40.392Z,95.8343
2019-04-07T01:17:49.868Z,95.4208
2019-04-07T01:17:57.775Z,95.2529
2019-04-07T01:18:05.452Z,95.1370
2019-04-07T01:18:16.525Z,95.0973
2019-04-07T01:18:26.183Z,95.0744
2019-04-07T01:18:35.597Z,94.6075
2019-04-07T01:18:43.768Z,94.7158
2019-04-07T01:18:52.050Z,95.1965
2019-04-07T01:19:01.422Z,95.1782
2019-04-07T01:19:09.972Z,95.1568
2019-04-07T01:19:19.045Z,95.0454
2019-04-07T01:19:27.822Z,94.7295
2019-04-07T01:19:35.420Z,94.0169
2019-04-07T01:19:43.398Z,93.6370
2019-04-07T01:19:51.948Z,93.7453
2019-04-07T01:19:59.759Z,94.0261
2019-04-07T01:20:10.607Z,94.2824
2019-04-07T01:20:18.430Z,94.2901
2019-04-07T01:20:26.880Z,94.0307
2019-04-07T01:20:35.321Z,94.1176
2019-04-07T01:20:43.962Z,94.3175
2019-04-07T01:20:53.018Z,94.4656
2019-04-07T01:21:04.823Z,94.6563
2019-04-07T01:21:12.828Z,94.8531
2019-04-07T01:21:20.443Z,94.9416
2019-04-07T01:21:28.410Z,94.5373
2019-04-07T01:21:36.429Z,94.3008
2019-04-07T01:21:44.574Z,93.9895
2019-04-07T01:21:53.581Z,93.5714
2019-04-07T01:22:02.413Z,93.5592
2019-04-07T01:22:10.390Z,93.6355
2019-04-07T01:22:18.590Z,93.9254
2019-04-07T01:22:27.431Z,94.3313
2019-04-07T01:22:35.655Z,94.5983
2019-04-07T01:22:44.417Z,94.8363
2019-04-07T01:22:52.769Z,94.7616
2019-04-07T01:23:00.642Z,94.7311
2019-04-07T01:23:08.424Z,94.8043
2019-04-07T01:23:16.988Z,94.8302
2019-04-07T01:23:26.288Z,94.8867
2019-04-07T01:23:35.641Z,94.8775
2019-04-07T01:23:47.881Z,94.6975
2019-04-07T01:23:55.403Z,94.6014
2019-04-07T01:24:03.421Z,94.6883
2019-04-07T01:24:11.404Z,94.7433
2019-04-07T01:24:19.892Z,94.8531
2019-04-07T01:24:31.467Z,94.9599
2019-04-07T01:24:40.644Z,94.8501
2019-04-07T01:24:48.478Z,94.7890
2019-04-07T01:24:55.986Z,94.7585
2019-04-07T01:25:04.978Z,94.8135
2019-04-07T01:25:13.822Z,94.7478
2019-04-07T01:25:21.491Z,94.7982
2019-04-07T01:25:29.432Z,94.8592
2019-04-07T01:25:37.897Z,94.7540
2019-04-07T01:25:45.705Z,94.6242
2019-04-07T01:25:55.203Z,94.5052
2019-04-07T01:26:03.406Z,94.4732
2019-04-07T01:26:11.412Z,94.4320
2019-04-07T01:26:19.423Z,94.5434
2019-04-07T01:26:27.386Z,94.5296
2019-04-07T01:26:35.539Z,94.4732
2019-04-07T01:26:43.571Z,94.4869
2019-04-07T01:26:51.541Z,94.6792
2019-04-07T01:27:00.297Z,94.9737
2019-04-07T01:27:07.421Z,95.0332
2019-04-07T01:27:15.749Z,94.8348
2019-04-07T01:27:23.567Z,94.7250
2019-04-07T01:27:32.289Z,94.7433
2019-04-07T01:27:40.401Z,94.6395
2019-04-07T01:27:49.296Z,94.7387
2019-04-07T01:27:57.804Z,94.7799
2019-04-07T01:28:05.506Z,94.6899
2019-04-07T01:28:13.429Z,94.5434
2019-04-07T01:28:36.353Z,94.4732
2019-04-07T01:28:45.633Z,94.8409
2019-04-07T01:28:54.523Z,94.7952
2019-04-07T01:29:03.417Z,94.5556
2019-04-07T01:29:12.288Z,94.4274
2019-04-07T01:29:21.518Z,94.4747
2019-04-07T01:29:29.865Z,94.6166
2019-04-07T01:29:37.389Z,94.9218
2019-04-07T01:29:47.534Z,95.4620
2019-04-07T01:29:55.395Z,95.3033
2019-04-07T01:30:04.022Z,95.2255
2019-04-07T01:30:12.418Z,95.2941
2019-04-07T01:30:21.441Z,95.4131
2019-04-07T01:30:29.406Z,95.3628
2019-04-07T01:30:37.847Z,95.3429
2019-04-07T01:30:45.844Z,95.4086
2019-04-07T01:30:54.277Z,95.3521
2019-04-07T01:31:02.422Z,95.3155
2019-04-07T01:31:10.422Z,95.0835
2019-04-07T01:31:18.772Z,95.0271
2019-04-07T01:31:26.416Z,95.2560
2019-04-07T01:31:34.412Z,95.7931
2019-04-07T01:31:43.028Z,96.0082
2019-04-07T01:31:51.758Z,95.5947
2019-04-07T01:31:59.476Z,95.1339
2019-04-07T01:32:07.402Z,95.2697
2019-04-07T01:32:15.962Z,95.4681
2019-04-07T01:32:24.013Z,95.7641
2019-04-07T01:32:32.400Z,95.7473
2019-04-07T01:32:40.948Z,95.9167
2019-04-07T01:32:48.410Z,96.0937
2019-04-07T01:32:57.525Z,95.6725
2019-04-07T01:33:05.450Z,95.3674
2019-04-07T01:33:14.427Z,95.2972
2019-04-07T01:33:22.395Z,95.3399
2019-04-07T01:33:30.394Z,95.1919
2019-04-07T01:33:38.907Z,95.2941
2019-04-07T01:33:46.862Z,95.3994
2019-04-07T01:33:54.393Z,95.3613
2019-04-07T01:34:02.440Z,95.3201
2019-04-07T01:34:10.608Z,95.1644
2019-04-07T01:34:18.513Z,95.1064
2019-04-07T01:34:26.468Z,95.0500
2019-04-07T01:34:35.294Z,95.1141
2019-04-07T01:34:43.582Z,95.1919
2019-04-07T01:34:52.392Z,95.2789
2019-04-07T01:35:00.412Z,95.3018
2019-04-07T01:35:08.542Z,95.4437
2019-04-07T01:35:16.814Z,95.4940
2019-04-07T01:35:24.422Z,95.6359
2019-04-07T01:35:33.054Z,95.6359
2019-04-07T01:35:50.360Z,95.7061
2019-04-07T01:35:58.425Z,95.5764
2019-04-07T01:36:06.417Z,95.4025
2019-04-07T01:36:14.483Z,95.3582
2019-04-07T01:36:22.644Z,95.5459
2019-04-07T01:36:31.668Z,95.3536
2019-04-07T01:36:39.407Z,95.1385
2019-04-07T01:36:48.012Z,95.0820
2019-04-07T01:36:56.776Z,95.0881
2019-04-07T01:37:04.486Z,95.2148
2019-04-07T01:37:12.409Z,95.3246
2019-04-07T01:37:22.324Z,95.4589
2019-04-07T01:37:30.695Z,95.5489
2019-04-07T01:37:39.589Z,95.5734
2019-04-07T01:37:51.833Z,95.6085
2019-04-07T01:37:59.921Z,95.6954
2019-04-07T01:38:08.317Z,95.5947
2019-04-07T01:38:16.747Z,95.4681
2019-04-07T01:38:24.422Z,95.4635
2019-04-07T01:38:32.411Z,95.4177
2019-04-07T01:38:43.353Z,95.4070
2019-04-07T01:38:51.398Z,95.4635
2019-04-07T01:38:59.968Z,95.4177
2019-04-07T01:39:11.901Z,95.4040
2019-04-07T01:39:19.496Z,95.4253
2019-04-07T01:39:27.421Z,95.4162
2019-04-07T01:39:35.419Z,95.3719
2019-04-07T01:39:43.870Z,95.2377
2019-04-07T01:39:51.402Z,95.1064
2019-04-07T01:39:59.448Z,95.0469
2019-04-07T01:40:08.079Z,94.9828
2019-04-07T01:40:16.838Z,94.8638
2019-04-07T01:40:27.289Z,94.8180
2019-04-07T01:40:35.442Z,94.8684
2019-04-07T01:40:43.445Z,94.9783
2019-04-07T01:40:51.931Z,95.0835
2019-04-07T01:40:59.863Z,95.0881
2019-04-07T01:41:15.268Z,95.0149
2019-04-07T01:41:23.687Z,94.8806
2019-04-07T01:41:31.761Z,95.0637
2019-04-07T01:41:39.389Z,95.1095
2019-04-07T01:41:47.407Z,95.1095
2019-04-07T01:41:55.381Z,95.2194
2019-04-07T01:42:02.630Z,95.1232
2019-04-07T01:42:10.411Z,95.1919
2019-04-07T01:42:18.971Z,95.1049
2019-04-07T01:42:28.051Z,94.9142
2019-04-07T01:42:36.732Z,94.4320
2019-04-07T01:42:44.419Z,94.1772
2019-04-07T01:42:52.399Z,94.0612
2019-04-07T01:43:01.034Z,94.1802
2019-04-07T01:43:09.406Z,94.3832
2019-04-07T01:43:17.539Z,94.4427
2019-04-07T01:43:25.915Z,94.2138
2019-04-07T01:43:34.398Z,94.0673
2019-04-07T01:43:42.425Z,93.9376
2019-04-07T01:43:50.423Z,93.8338
2019-04-07T01:43:58.948Z,93.9284
2019-04-07T01:44:08.972Z,94.0932
2019-04-07T01:44:17.984Z,94.1024
2019-04-07T01:44:26.691Z,94.0246
2019-04-07T01:44:34.415Z,93.9849
2019-04-07T01:44:42.407Z,94.0154
2019-04-07T01:44:51.882Z,94.0627
2019-04-07T01:44:59.940Z,94.2138
2019-04-07T01:45:08.410Z,94.1573
2019-04-07T01:45:16.907Z,94.1939
2019-04-07T01:45:24.413Z,94.2367
2019-04-07T01:45:32.411Z,94.1894
2019-04-07T01:45:40.415Z,94.1817
2019-04-07T01:45:55.992Z,94.0993
2019-04-07T01:46:04.034Z,93.9529
2019-04-07T01:46:13.293Z,94.0749
2019-04-07T01:46:21.774Z,94.0978
2019-04-07T01:46:30.579Z,94.0673
2019-04-07T01:46:38.428Z,93.9803
2019-04-07T01:46:47.064Z,93.8506
2019-04-07T01:46:55.975Z,93.6324